Detall de PIREP

Printer-friendly versionPDF version

[2017/08/04 05:15:00]
Flight IATA:CT2115
Pilot Number:041
Company ICAO:CAT
Aircraft Type:B738/F
PAX:119
Departing Airport: LEXJ
Destination Airport: LEVC
Alternate Airport:LEBL
Online: VATSIM
Route:BLV UM601 GRAUS UN860 SAURA


Flight Level:FL330
No Slew and time accel
No pause
Crash detect
Detect pilot in Cockpit between each 30 and 45 minutes
05:15 Zero fuel Weight: 135600 Lbs, Fuel Weight: 13813 Lbs
05:15 VATSIM:LEXJ 040500Z 00000KT CAVOK 19/19 Q1017
05:15 VATSIM:LEVC 040500Z VRB01KT CAVOK 24/17 Q1014 NOSIG
05:15 VOICE CATALONIAN
05:27 Parking Brakes off
05:32 Take-off
05:32 Take off Weight: 148573 Lbs
05:32 Wind: 315º @ 011 Knots Heading: 108º
05:32 POS N43º 25´ 22´´ W003º 48´ 16´´
05:32 Gear Up: 164 Knots
05:32 Flaps:3 at 164 Knots
05:33 Flaps:2 at 167 Knots
05:33 Flaps:1 at 186 Knots
05:33 Flaps:0 at 205 Knots
05:47 Wind:315º@057 Knots Heading: 120º Ground Speed: 513 Knots Altitude 28782 ft
05:50 TOC
05:50 Fuel Weight: 9226 Lb
06:02 Wind:271º@001 Knots Heading: 190º Ground Speed: 461 Knots Altitude 32998 ft
06:08 TOD
06:08 Fuel Weight: 7464 Lb
06:17 Wind:285º@012 Knots Heading: 183º Ground Speed: 366 Knots Altitude 14711 ft
06:21 Flaps:1 at 245 Knots
06:23 Flaps:2 at 242 Knots
06:23 Flaps:3 at 235 Knots
06:24 Flaps:4 at 223 Knots
06:24 Flaps:5 at 184 Knots
06:25 Flaps:6 at 174 Knots
06:25 Gear Down: 181 Knots
06:25 Flaps:7 at 182 Knots
06:25 Flaps:8 at 169 Knots
06:30 TouchDown:Rate -279 ft/min Speed: 134 Knots
06:30 VATSIM:LEVC 040600Z 00000KT CAVOK 26/18 Q1015 NOSIG
06:30 Land
06:30 Wind:073º@009 Knots
06:30 Heading: 295º
06:30 Flight Duration: 00:58
06:30 Landing Weight: 141862 Lbs
06:30 POS N39º 29´ 21´´ W000º 28´ 53´´
06:34 Parking brakes on
06:34 Block to Block Duration: 01:07
06:34 FinalFuel: 5890 Lbls
06:34 Spent Fuel: 7923 Lbls
06:34 Flight Length: 375 NM
06:34 TOD Land Length: 109 NM

Exportar CSV

Powered by Drupal - Modified by Danger4k